Time;durP1;ratioP1;P1;durP2;ratioP2;P2;SDS_P1;SDS_P2;PMS_P1;PMS_P2;Temp;Humidity;BMP_temperature;BMP_pressure;BME280_temperature;BME280_humidity;BME280_pressure;Samples;Min_cycle;Max_cycle;Signal;HPM_P1;HPM_P2
2021/05/09 00:01:19;;;;;;;11.45;7.55;;;;;;;;;;4952043;28;20197;-76
2021/05/09 00:03:46;;;;;;;8.68;5.85;;;;;;;;;;4969573;28;20117;-76
2021/05/09 00:06:14;;;;;;;13.45;6.22;;;;;;;;;;4971115;28;20142;-76
2021/05/09 00:08:41;;;;;;;9.68;6.70;;;;;;;;;;4961266;28;20090;-76
2021/05/09 00:11:07;;;;;;;11.48;6.93;;;;;;;;;;4953321;28;20452;-76
2021/05/09 00:13:34;;;;;;;15.02;6.85;;;;;;;;;;4952647;28;20111;-76
2021/05/09 00:16:01;;;;;;;12.95;7.05;;;;;;;;;;4961232;28;20947;-77
2021/05/09 00:18:28;;;;;;;11.00;6.22;;;;;;;;;;4955530;28;20051;-77
2021/05/09 00:20:58;;;;;;;11.10;6.88;;;;;;;;;;4957974;28;20063;-76
2021/05/09 00:23:25;;;;;;;14.25;7.78;;;;;;;;;;4939941;28;20047;-76
2021/05/09 00:25:54;;;;;;;12.75;7.25;;;;;;;;;;4951869;28;20051;-76
2021/05/09 00:28:21;;;;;;;9.93;7.32;;;;;;;;;;4957007;28;20111;-76
2021/05/09 00:30:48;;;;;;;10.43;7.53;;;;;;;;;;4952722;28;20142;-76
2021/05/09 00:33:15;;;;;;;11.10;7.60;;;;;;;;;;4951578;28;20754;-76
2021/05/09 00:35:41;;;;;;;18.02;8.18;;;;;;;;;;4952316;28;20047;-76
2021/05/09 00:38:08;;;;;;;17.75;7.70;;;;;;;;;;4949742;28;20138;-76
2021/05/09 00:40:35;;;;;;;14.15;8.43;;;;;;;;;;4949537;28;20563;-76
2021/05/09 00:43:02;;;;;;;13.32;7.65;;;;;;;;;;4969900;28;20078;-77
2021/05/09 00:45:28;;;;;;;13.07;8.13;;;;;;;;;;4945845;28;20055;-77
2021/05/09 00:47:55;;;;;;;19.58;8.32;;;;;;;;;;4940078;29;20497;-76
2021/05/09 00:50:22;;;;;;;13.82;8.82;;;;;;;;;;4951593;28;20846;-76
2021/05/09 00:52:49;;;;;;;15.05;9.25;;;;;;;;;;4949587;28;20110;-77
2021/05/09 00:55:17;;;;;;;15.80;9.00;;;;;;;;;;4951729;28;20082;-76
2021/05/09 00:57:46;;;;;;;14.10;8.65;;;;;;;;;;4961255;28;20086;-76
2021/05/09 01:00:13;;;;;;;18.38;10.02;;;;;;;;;;4967741;28;20133;-76
2021/05/09 01:02:42;;;;;;;13.23;8.13;;;;;;;;;;4968300;28;20563;-76
2021/05/09 01:05:10;;;;;;;14.85;8.65;;;;;;;;;;4970803;28;20047;-76
2021/05/09 01:07:37;;;;;;;12.77;8.23;;;;;;;;;;4969898;28;20089;-76
2021/05/09 01:10:07;;;;;;;15.20;9.57;;;;;;;;;;4969523;28;20110;-76
2021/05/09 01:12:34;;;;;;;19.10;8.82;;;;;;;;;;4959972;28;20157;-76
2021/05/09 01:15:02;;;;;;;14.15;8.38;;;;;;;;;;4965091;28;20130;-76
2021/05/09 01:17:29;;;;;;;15.07;8.38;;;;;;;;;;4950069;28;20118;-75
2021/05/09 01:19:59;;;;;;;14.13;8.68;;;;;;;;;;4949454;29;20504;-76
2021/05/09 01:22:26;;;;;;;15.48;8.93;;;;;;;;;;4956572;28;20427;-75
2021/05/09 01:24:54;;;;;;;13.05;7.18;;;;;;;;;;4970485;28;20630;-76
2021/05/09 01:27:20;;;;;;;15.80;7.75;;;;;;;;;;4968804;28;20113;-76
2021/05/09 01:29:49;;;;;;;11.45;7.35;;;;;;;;;;4957521;28;20125;-76
2021/05/09 01:32:15;;;;;;;11.57;7.13;;;;;;;;;;4949984;28;20142;-77
2021/05/09 01:34:42;;;;;;;17.85;7.95;;;;;;;;;;4970200;28;20062;-76
2021/05/09 01:37:09;;;;;;;12.30;7.60;;;;;;;;;;4970168;28;20089;-76
2021/05/09 01:39:36;;;;;;;12.05;7.53;;;;;;;;;;4967719;28;20134;-76
2021/05/09 01:42:02;;;;;;;11.30;7.05;;;;;;;;;;4964744;28;20118;-76
2021/05/09 01:44:29;;;;;;;9.98;7.05;;;;;;;;;;4950567;28;20058;-76
2021/05/09 01:46:56;;;;;;;11.68;7.03;;;;;;;;;;4947547;29;20102;-76
2021/05/09 01:49:23;;;;;;;15.32;7.28;;;;;;;;;;4962098;28;20059;-76
2021/05/09 01:51:50;;;;;;;10.75;6.22;;;;;;;;;;4951186;28;20046;-75
2021/05/09 01:54:17;;;;;;;11.40;6.70;;;;;;;;;;4951231;29;20156;-76
2021/05/09 01:56:44;;;;;;;13.13;7.18;;;;;;;;;;4949808;28;20134;-76
2021/05/09 01:59:11;;;;;;;10.32;7.05;;;;;;;;;;4957747;28;20496;-76
2021/05/09 02:01:38;;;;;;;12.52;7.20;;;;;;;;;;4948222;29;20074;-76
2021/05/09 02:04:05;;;;;;;10.68;6.90;;;;;;;;;;4949482;29;20051;-76
2021/05/09 02:06:32;;;;;;;10.07;6.70;;;;;;;;;;4950995;28;20130;-75
2021/05/09 02:08:58;;;;;;;13.60;6.72;;;;;;;;;;4950649;28;20091;-75
2021/05/09 02:11:25;;;;;;;11.93;7.15;;;;;;;;;;4950181;28;20480;-75
2021/05/09 02:13:52;;;;;;;19.55;6.82;;;;;;;;;;4950427;28;20154;-75
2021/05/09 02:16:18;;;;;;;9.68;6.53;;;;;;;;;;4959999;28;20164;-75
2021/05/09 02:18:45;;;;;;;12.15;6.68;;;;;;;;;;4948776;29;20059;-75
2021/05/09 02:21:12;;;;;;;9.10;6.10;;;;;;;;;;4950608;28;20083;-75
2021/05/09 02:23:38;;;;;;;9.65;6.30;;;;;;;;;;4963671;28;20051;-75
2021/05/09 02:26:05;;;;;;;10.65;6.13;;;;;;;;;;4965812;28;20102;-75
2021/05/09 02:28:32;;;;;;;8.48;6.22;;;;;;;;;;4955659;28;20090;-75
2021/05/09 02:30:58;;;;;;;9.27;6.28;;;;;;;;;;4950371;28;20059;-75
2021/05/09 02:33:25;;;;;;;11.15;5.97;;;;;;;;;;4948771;29;20138;-75
2021/05/09 02:35:52;;;;;;;9.52;6.18;;;;;;;;;;4964426;28;20086;-75
2021/05/09 02:38:19;;;;;;;7.72;5.85;;;;;;;;;;4967406;28;20129;-76
2021/05/09 02:40:45;;;;;;;10.23;5.97;;;;;;;;;;4959219;28;20531;-75
2021/05/09 02:43:16;;;;;;;9.60;6.32;;;;;;;;;;4950698;28;20055;-75
2021/05/09 02:45:43;;;;;;;8.15;5.43;;;;;;;;;;4948445;28;20051;-76
2021/05/09 02:48:10;;;;;;;8.50;5.60;;;;;;;;;;4949932;28;20086;-76
2021/05/09 02:50:38;;;;;;;9.23;5.25;;;;;;;;;;4948151;28;20086;-75
2021/05/09 02:53:05;;;;;;;10.02;5.18;;;;;;;;;;4948565;28;20087;-76
2021/05/09 02:55:31;;;;;;;8.25;5.50;;;;;;;;;;4948836;28;20130;-76
2021/05/09 02:57:59;;;;;;;10.68;5.38;;;;;;;;;;4956266;28;20047;-75
2021/05/09 03:00:26;;;;;;;8.68;5.45;;;;;;;;;;4949183;28;20087;-75
2021/05/09 03:03:06;;;;;;;9.82;5.13;;;;;;;;;;4949813;28;20142;-76
2021/05/09 03:05:33;;;;;;;7.57;5.25;;;;;;;;;;4951439;28;20047;-76
2021/05/09 03:07:59;;;;;;;7.53;5.05;;;;;;;;;;4949966;28;20134;-76
2021/05/09 03:10:27;;;;;;;9.35;5.50;;;;;;;;;;4930707;29;20688;-76
2021/05/09 03:12:53;;;;;;;8.82;5.80;;;;;;;;;;4948775;28;20083;-76
2021/05/09 03:15:20;;;;;;;7.80;5.30;;;;;;;;;;4954897;28;20686;-76
2021/05/09 03:17:47;;;;;;;7.40;4.60;;;;;;;;;;4948673;29;20113;-76
2021/05/09 03:20:14;;;;;;;8.75;4.85;;;;;;;;;;4953965;28;20145;-76
2021/05/09 03:22:40;;;;;;;7.25;5.47;;;;;;;;;;4950038;28;20082;-76
2021/05/09 03:25:07;;;;;;;9.93;5.47;;;;;;;;;;4949826;28;20138;-76
2021/05/09 03:27:34;;;;;;;7.85;5.28;;;;;;;;;;4947098;28;20780;-76
2021/05/09 03:30:00;;;;;;;7.40;4.78;;;;;;;;;;4950091;28;20134;-76
2021/05/09 03:32:27;;;;;;;7.85;5.57;;;;;;;;;;4950060;28;20082;-76
2021/05/09 03:34:55;;;;;;;6.30;4.90;;;;;;;;;;4948411;28;20058;-76
2021/05/09 03:37:22;;;;;;;7.15;4.55;;;;;;;;;;4960499;28;20086;-76
2021/05/09 03:39:49;;;;;;;7.28;4.72;;;;;;;;;;4948303;28;20551;-76
2021/05/09 03:42:15;;;;;;;7.15;4.00;;;;;;;;;;4948634;28;20071;-76
2021/05/09 03:44:42;;;;;;;6.40;4.78;;;;;;;;;;4948445;28;20575;-77
2021/05/09 03:47:09;;;;;;;9.50;4.75;;;;;;;;;;4952181;28;20567;-76
2021/05/09 03:49:35;;;;;;;6.20;4.43;;;;;;;;;;4961740;28;20051;-76
2021/05/09 03:52:02;;;;;;;6.97;4.30;;;;;;;;;;4950892;28;20457;-76
2021/05/09 03:54:29;;;;;;;6.13;4.70;;;;;;;;;;4951731;28;20071;-76
2021/05/09 03:56:56;;;;;;;7.47;4.40;;;;;;;;;;4952649;28;20055;-76
2021/05/09 03:59:22;;;;;;;9.45;4.25;;;;;;;;;;4952830;28;20443;-76
2021/05/09 04:01:49;;;;;;;7.75;4.53;;;;;;;;;;4952071;28;20071;-76
2021/05/09 04:04:17;;;;;;;6.32;4.43;;;;;;;;;;4951447;28;20118;-76
2021/05/09 04:06:44;;;;;;;7.65;4.10;;;;;;;;;;4951929;28;20134;-76
2021/05/09 04:09:11;;;;;;;7.13;4.55;;;;;;;;;;4953192;28;20110;-76
2021/05/09 04:11:37;;;;;;;5.28;3.90;;;;;;;;;;4952918;28;20071;-76
2021/05/09 04:14:04;;;;;;;6.20;4.50;;;;;;;;;;4951797;29;20074;-76
2021/05/09 04:16:31;;;;;;;5.93;4.07;;;;;;;;;;4953236;28;20134;-76
2021/05/09 04:18:58;;;;;;;5.75;3.92;;;;;;;;;;4962570;28;20161;-76
2021/05/09 04:21:24;;;;;;;9.30;4.05;;;;;;;;;;4951462;28;20130;-76
2021/05/09 04:23:51;;;;;;;6.50;4.15;;;;;;;;;;4959496;28;20153;-76
2021/05/09 04:26:18;;;;;;;7.38;4.18;;;;;;;;;;4953881;28;20326;-76
2021/05/09 04:28:44;;;;;;;6.75;3.78;;;;;;;;;;4961879;28;20168;-76
2021/05/09 04:31:11;;;;;;;6.13;3.88;;;;;;;;;;4969956;28;20046;-76
2021/05/09 04:33:38;;;;;;;5.30;3.85;;;;;;;;;;4971766;28;20106;-76
2021/05/09 04:36:09;;;;;;;7.00;4.00;;;;;;;;;;4970798;28;20051;-76
2021/05/09 04:38:36;;;;;;;5.53;3.55;;;;;;;;;;4969880;28;20475;-76
2021/05/09 04:41:04;;;;;;;5.50;3.90;;;;;;;;;;4961036;28;20102;-76
2021/05/09 04:43:31;;;;;;;8.57;3.35;;;;;;;;;;4950194;28;20107;-76
2021/05/09 04:45:57;;;;;;;7.32;3.72;;;;;;;;;;4951314;28;20083;-76
2021/05/09 04:48:25;;;;;;;4.15;3.30;;;;;;;;;;4951942;29;20051;-76
2021/05/09 04:50:52;;;;;;;5.22;3.70;;;;;;;;;;4951635;29;20086;-76
2021/05/09 04:53:22;;;;;;;9.55;3.58;;;;;;;;;;4950675;28;20126;-76
2021/05/09 04:55:51;;;;;;;6.68;3.60;;;;;;;;;;4952835;28;20079;-76
2021/05/09 04:58:18;;;;;;;6.07;3.38;;;;;;;;;;4948773;28;20607;-76
2021/05/09 05:00:45;;;;;;;7.25;3.20;;;;;;;;;;4948681;29;20085;-76
2021/05/09 05:03:13;;;;;;;5.68;3.38;;;;;;;;;;4949552;29;20055;-76
2021/05/09 05:05:39;;;;;;;8.35;3.33;;;;;;;;;;4952604;28;20158;-76
2021/05/09 05:08:06;;;;;;;4.57;3.42;;;;;;;;;;4950226;29;20539;-76
2021/05/09 05:10:33;;;;;;;4.10;3.55;;;;;;;;;;4956964;28;20051;-77
2021/05/09 05:13:00;;;;;;;5.72;3.28;;;;;;;;;;4951108;29;20083;-76
2021/05/09 05:15:26;;;;;;;4.18;3.28;;;;;;;;;;4951149;28;20113;-77
2021/05/09 05:17:56;;;;;;;4.40;3.30;;;;;;;;;;4949797;29;20134;-76
2021/05/09 05:20:23;;;;;;;4.88;3.00;;;;;;;;;;4952766;28;20077;-77
2021/05/09 05:22:50;;;;;;;4.15;3.25;;;;;;;;;;4952003;28;20047;-76
2021/05/09 05:25:17;;;;;;;5.05;3.55;;;;;;;;;;4951153;28;20164;-79
2021/05/09 05:27:44;;;;;;;6.55;3.72;;;;;;;;;;4958729;28;20047;-78
2021/05/09 05:30:11;;;;;;;5.75;3.25;;;;;;;;;;4947995;28;20159;-78
2021/05/09 05:32:40;;;;;;;7.20;2.92;;;;;;;;;;4948929;28;20111;-77
2021/05/09 05:35:08;;;;;;;4.30;3.03;;;;;;;;;;4948843;28;20081;-79
2021/05/09 05:37:35;;;;;;;4.35;2.88;;;;;;;;;;4950825;28;20102;-77
2021/05/09 05:40:01;;;;;;;6.15;3.33;;;;;;;;;;4964680;28;20718;-77
2021/05/09 05:42:28;;;;;;;4.93;3.08;;;;;;;;;;4950204;29;20105;-77
2021/05/09 05:44:55;;;;;;;7.40;3.47;;;;;;;;;;4948190;28;20480;-78
2021/05/09 05:47:23;;;;;;;4.13;3.00;;;;;;;;;;4950046;28;20097;-77
2021/05/09 05:49:55;;;;;;;3.50;2.80;;;;;;;;;;4944847;28;20055;-77
2021/05/09 05:52:22;;;;;;;4.30;3.22;;;;;;;;;;4951292;28;20055;-77
2021/05/09 05:54:49;;;;;;;5.40;2.58;;;;;;;;;;4949648;29;20170;-77
2021/05/09 05:57:16;;;;;;;5.57;3.10;;;;;;;;;;4951048;29;20061;-77
2021/05/09 05:59:43;;;;;;;7.82;3.30;;;;;;;;;;4951972;28;20055;-78
2021/05/09 06:02:10;;;;;;;4.32;3.10;;;;;;;;;;4949697;29;20665;-77
2021/05/09 06:04:40;;;;;;;6.47;2.85;;;;;;;;;;4952342;28;20510;-77
2021/05/09 06:07:11;;;;;;;4.53;2.80;;;;;;;;;;4950515;28;20098;-78
2021/05/09 06:09:38;;;;;;;4.88;2.97;;;;;;;;;;4953591;28;20059;-80
2021/05/09 06:12:06;;;;;;;4.13;3.00;;;;;;;;;;4954176;28;20532;-77
2021/05/09 06:14:32;;;;;;;5.28;2.65;;;;;;;;;;4948810;28;20101;-77
2021/05/09 06:16:59;;;;;;;5.07;3.00;;;;;;;;;;4953158;28;20473;-77
2021/05/09 06:19:26;;;;;;;6.07;2.92;;;;;;;;;;4948270;29;20257;-77
2021/05/09 06:21:53;;;;;;;4.93;2.75;;;;;;;;;;4951324;28;20062;-77
2021/05/09 06:24:20;;;;;;;5.60;2.80;;;;;;;;;;4952040;28;20134;-77
2021/05/09 06:26:49;;;;;;;3.10;2.75;;;;;;;;;;4949022;29;20138;-75
2021/05/09 06:29:16;;;;;;;5.82;2.72;;;;;;;;;;4948117;28;20079;-76
2021/05/09 06:31:42;;;;;;;4.80;2.47;;;;;;;;;;4950434;28;20142;-75
2021/05/09 06:34:10;;;;;;;4.70;2.78;;;;;;;;;;4951013;28;20047;-75
2021/05/09 06:36:37;;;;;;;7.68;2.83;;;;;;;;;;4949470;29;20058;-77
2021/05/09 06:39:04;;;;;;;5.80;2.58;;;;;;;;;;4949148;29;20079;-76
2021/05/09 06:41:31;;;;;;;4.72;2.78;;;;;;;;;;4949934;28;20043;-76
2021/05/09 06:44:01;;;;;;;7.65;2.90;;;;;;;;;;4951515;28;20067;-79
2021/05/09 06:46:28;;;;;;;3.70;2.70;;;;;;;;;;4951280;28;20086;-79
2021/05/09 06:48:55;;;;;;;3.17;2.42;;;;;;;;;;4949543;28;20094;-79
2021/05/09 06:51:22;;;;;;;2.90;2.42;;;;;;;;;;4949459;28;20580;-78
2021/05/09 06:53:49;;;;;;;4.57;2.55;;;;;;;;;;4949945;28;20419;-78
2021/05/09 06:56:16;;;;;;;6.68;2.95;;;;;;;;;;4953076;28;20468;-79
2021/05/09 06:58:43;;;;;;;4.97;2.90;;;;;;;;;;4951297;29;20059;-81
2021/05/09 07:01:12;;;;;;;3.58;2.63;;;;;;;;;;4946463;29;20051;-78
2021/05/09 07:03:40;;;;;;;5.30;2.88;;;;;;;;;;4948786;28;20106;-78
2021/05/09 07:06:07;;;;;;;5.18;2.15;;;;;;;;;;4949467;28;20047;-77
2021/05/09 07:08:34;;;;;;;4.72;2.40;;;;;;;;;;4949994;28;20139;-77
2021/05/09 07:11:02;;;;;;;4.50;2.50;;;;;;;;;;4949802;29;20127;-77
2021/05/09 07:13:29;;;;;;;3.35;2.13;;;;;;;;;;4964013;28;20057;-76
2021/05/09 07:15:58;;;;;;;3.00;2.03;;;;;;;;;;4947870;28;20082;-76
2021/05/09 07:18:31;;;;;;;2.60;2.35;;;;;;;;;;4947931;29;20563;-77
2021/05/09 07:21:01;;;;;;;3.80;2.30;;;;;;;;;;4950522;28;20050;-76
2021/05/09 07:23:31;;;;;;;4.18;2.25;;;;;;;;;;4952039;28;20055;-75
2021/05/09 07:25:57;;;;;;;3.92;2.50;;;;;;;;;;4953234;28;20130;-79
2021/05/09 07:28:24;;;;;;;2.88;2.40;;;;;;;;;;4955768;29;20113;-80
2021/05/09 07:30:51;;;;;;;3.72;2.40;;;;;;;;;;4954717;29;20114;-80
2021/05/09 07:33:17;;;;;;;8.10;2.75;;;;;;;;;;4952546;29;20102;-80
2021/05/09 07:35:44;;;;;;;2.35;2.08;;;;;;;;;;4950777;28;20476;-80
2021/05/09 07:38:12;;;;;;;2.90;2.30;;;;;;;;;;4954884;28;20062;-81
2021/05/09 07:40:39;;;;;;;3.67;2.72;;;;;;;;;;4966771;28;20047;-82
2021/05/09 07:43:12;;;;;;;4.10;2.50;;;;;;;;;;4944766;29;20043;-81
2021/05/09 07:45:40;;;;;;;6.05;2.50;;;;;;;;;;4954976;29;20051;-81
2021/05/09 07:48:09;;;;;;;4.72;2.38;;;;;;;;;;4955075;29;20134;-78
2021/05/09 07:50:36;;;;;;;6.30;3.00;;;;;;;;;;4954553;29;20094;-78
2021/05/09 07:53:03;;;;;;;3.97;2.50;;;;;;;;;;4954579;28;20055;-77
2021/05/09 07:55:30;;;;;;;3.22;2.60;;;;;;;;;;4954700;29;20094;-77
2021/05/09 07:57:57;;;;;;;3.78;2.55;;;;;;;;;;4952799;28;20091;-75
2021/05/09 08:00:24;;;;;;;6.68;2.83;;;;;;;;;;4953532;28;20047;-78
2021/05/09 08:02:52;;;;;;;4.07;2.90;;;;;;;;;;4958293;28;20547;-77
2021/05/09 08:05:20;;;;;;;4.57;2.70;;;;;;;;;;4958325;28;20050;-79
2021/05/09 08:07:50;;;;;;;3.97;2.67;;;;;;;;;;4954378;28;20700;-77
2021/05/09 08:10:16;;;;;;;3.75;2.50;;;;;;;;;;4952891;28;20102;-76
2021/05/09 08:12:43;;;;;;;3.97;2.60;;;;;;;;;;4961746;28;20188;-76
2021/05/09 08:15:11;;;;;;;3.38;2.22;;;;;;;;;;4963004;28;20138;-78
2021/05/09 08:17:38;;;;;;;6.55;2.85;;;;;;;;;;4950707;29;20107;-77
2021/05/09 08:20:06;;;;;;;5.20;2.58;;;;;;;;;;4952399;28;20062;-77
2021/05/09 08:22:33;;;;;;;5.82;2.50;;;;;;;;;;4953115;29;20484;-77
2021/05/09 08:25:00;;;;;;;3.25;2.53;;;;;;;;;;4951177;29;20079;-77
2021/05/09 08:27:33;;;;;;;6.30;2.40;;;;;;;;;;4952672;28;20055;-78
2021/05/09 08:30:00;;;;;;;6.55;2.33;;;;;;;;;;4952331;28;20062;-78
2021/05/09 08:32:27;;;;;;;5.60;2.40;;;;;;;;;;4950623;28;20134;-79
2021/05/09 08:34:57;;;;;;;3.85;2.30;;;;;;;;;;4951714;29;20575;-78
2021/05/09 08:37:24;;;;;;;5.22;2.30;;;;;;;;;;4951734;29;20086;-78
2021/05/09 08:39:51;;;;;;;5.25;2.60;;;;;;;;;;4951191;29;20081;-77
2021/05/09 08:42:18;;;;;;;4.90;2.60;;;;;;;;;;4952207;29;20500;-78
2021/05/09 08:44:45;;;;;;;7.68;2.20;;;;;;;;;;4952366;29;20134;-78
2021/05/09 08:47:12;;;;;;;3.10;2.10;;;;;;;;;;4951195;29;20055;-78
2021/05/09 08:49:43;;;;;;;3.72;2.15;;;;;;;;;;4952751;28;20047;-77
2021/05/09 08:52:10;;;;;;;7.35;2.65;;;;;;;;;;4946850;29;20519;-78
2021/05/09 08:54:37;;;;;;;5.07;2.25;;;;;;;;;;4950540;29;20503;-78
2021/05/09 08:57:04;;;;;;;5.68;2.30;;;;;;;;;;4950113;29;20114;-78
2021/05/09 08:59:31;;;;;;;5.85;2.22;;;;;;;;;;4951502;29;20436;-78
2021/05/09 09:01:58;;;;;;;3.25;2.10;;;;;;;;;;4952221;29;20493;-78
2021/05/09 09:04:25;;;;;;;5.60;2.10;;;;;;;;;;4952075;29;20479;-78
2021/05/09 09:06:54;;;;;;;4.25;1.95;;;;;;;;;;4951204;29;20051;-78
2021/05/09 09:09:20;;;;;;;3.28;1.90;;;;;;;;;;4951663;29;20067;-78
2021/05/09 09:11:57;;;;;;;3.35;2.25;;;;;;;;;;4951982;29;20118;-78
2021/05/09 09:14:27;;;;;;;2.45;1.98;;;;;;;;;;4950432;29;20086;-79
2021/05/09 09:17:13;;;;;;;4.00;2.08;;;;;;;;;;4950564;29;20054;-79
2021/05/09 09:19:58;;;;;;;2.47;1.77;;;;;;;;;;4951455;29;20051;-78
2021/05/09 09:22:25;;;;;;;;;;;;;;;;;;4951437;29;20556;-78
2021/05/09 09:25:02;;;;;;;3.47;1.60;;;;;;;;;;4950214;29;19926;-78
2021/05/09 09:27:29;;;;;;;2.33;1.70;;;;;;;;;;4950694;29;20059;-78
2021/05/09 09:30:02;;;;;;;2.50;1.70;;;;;;;;;;4951517;29;20087;-78
2021/05/09 09:32:28;;;;;;;4.07;1.73;;;;;;;;;;4951217;29;20055;-78
2021/05/09 09:34:56;;;;;;;2.95;1.80;;;;;;;;;;4951159;29;20055;-78
2021/05/09 09:37:24;;;;;;;3.65;1.70;;;;;;;;;;4951360;29;20062;-78
2021/05/09 09:39:58;;;;;;;4.10;1.65;;;;;;;;;;4951340;29;20674;-78
2021/05/09 09:42:37;;;;;;;2.50;1.50;;;;;;;;;;4950095;29;20082;-78
2021/05/09 09:45:23;;;;;;;3.42;1.27;;;;;;;;;;4950466;28;20055;-79
2021/05/09 09:47:53;;;;;;;3.85;1.75;;;;;;;;;;4950601;28;20090;-79
2021/05/09 09:50:56;;;;;;;4.30;1.85;;;;;;;;;;4950769;28;20051;-78
2021/05/09 09:53:34;;;;;;;4.78;1.35;;;;;;;;;;4858646;29;20058;-78
2021/05/09 09:56:02;;;;;;;3.53;1.60;;;;;;;;;;4939511;28;20600;-78
2021/05/09 09:58:48;;;;;;;3.85;1.30;;;;;;;;;;4950381;28;20059;-78
2021/05/09 10:01:16;;;;;;;2.13;1.33;;;;;;;;;;4950374;29;20102;-78
2021/05/09 10:03:42;;;;;;;5.15;1.38;;;;;;;;;;4951346;29;20094;-77
2021/05/09 10:06:09;;;;;;;2.45;1.35;;;;;;;;;;4951925;29;20063;-77
2021/05/09 10:08:37;;;;;;;4.55;1.30;;;;;;;;;;4950332;29;20055;-78
2021/05/09 10:11:05;;;;;;;5.65;1.85;;;;;;;;;;4950186;29;20455;-78
2021/05/09 10:13:32;;;;;;;6.57;1.77;;;;;;;;;;4949340;29;20102;-78
2021/05/09 10:15:59;;;;;;;6.72;1.33;;;;;;;;;;4949922;29;20105;-78
2021/05/09 10:18:27;;;;;;;2.53;1.40;;;;;;;;;;4950804;29;20091;-78
2021/05/09 10:20:54;;;;;;;1.20;1.00;;;;;;;;;;4950183;28;20090;-78
2021/05/09 10:23:21;;;;;;;3.13;1.30;;;;;;;;;;4949820;29;20053;-79
2021/05/09 10:25:49;;;;;;;3.72;1.60;;;;;;;;;;4948296;29;20142;-78
2021/05/09 10:28:17;;;;;;;8.00;2.10;;;;;;;;;;4950053;29;20094;-78
2021/05/09 10:30:45;;;;;;;5.05;1.63;;;;;;;;;;4948674;29;20202;-78
2021/05/09 10:33:32;;;;;;;3.55;1.67;;;;;;;;;;4950332;29;20085;-78
2021/05/09 10:35:58;;;;;;;2.08;1.33;;;;;;;;;;4949829;29;20056;-78
2021/05/09 10:38:25;;;;;;;4.82;1.50;;;;;;;;;;4948453;29;20122;-79
2021/05/09 10:41:09;;;;;;;3.53;1.58;;;;;;;;;;4950044;29;20059;-79
2021/05/09 10:43:35;;;;;;;3.03;1.63;;;;;;;;;;4950437;29;20088;-79
2021/05/09 10:46:02;;;;;;;6.10;2.60;;;;;;;;;;4949891;29;20125;-78
2021/05/09 10:48:31;;;;;;;6.32;2.55;;;;;;;;;;4949710;29;20091;-78
2021/05/09 10:51:04;;;;;;;5.78;3.55;;;;;;;;;;4949178;28;20138;-79
2021/05/09 10:53:31;;;;;;;2.33;1.48;;;;;;;;;;4950255;29;20055;-79
2021/05/09 10:55:58;;;;;;;2.38;1.55;;;;;;;;;;4950842;28;20051;-78
2021/05/09 10:58:40;;;;;;;4.10;1.85;;;;;;;;;;4954163;29;20079;-78
2021/05/09 11:01:09;;;;;;;3.35;1.50;;;;;;;;;;4954005;29;20134;-78
2021/05/09 11:03:36;;;;;;;18.08;12.20;;;;;;;;;;4956143;29;20078;-77
2021/05/09 11:06:04;;;;;;;2.38;1.48;;;;;;;;;;4956116;29;20190;-78
2021/05/09 11:08:52;;;;;;;2.42;1.50;;;;;;;;;;4954273;29;20051;-78
2021/05/09 11:11:20;;;;;;;5.20;3.88;;;;;;;;;;4954224;29;20854;-78
2021/05/09 11:14:02;;;;;;;8.07;2.70;;;;;;;;;;4953738;29;20063;-77
2021/05/09 11:16:33;;;;;;;7.28;2.92;;;;;;;;;;4953063;29;20460;-78
2021/05/09 11:19:03;;;;;;;4.20;1.63;;;;;;;;;;4937722;29;20055;-77
2021/05/09 11:21:39;;;;;;;3.00;1.85;;;;;;;;;;4953889;29;20118;-77
2021/05/09 11:24:07;;;;;;;6.70;1.80;;;;;;;;;;4954249;28;20135;-77
2021/05/09 11:26:44;;;;;;;3.40;1.70;;;;;;;;;;4953471;28;20095;-77
2021/05/09 11:29:15;;;;;;;4.93;2.50;;;;;;;;;;4953036;29;20597;-76
2021/05/09 11:31:43;;;;;;;2.97;1.40;;;;;;;;;;4952638;29;20058;-77
2021/05/09 11:34:10;;;;;;;2.33;1.50;;;;;;;;;;4952761;29;20043;-78
2021/05/09 11:36:38;;;;;;;6.38;1.40;;;;;;;;;;4953903;29;20142;-77
2021/05/09 11:39:08;;;;;;;2.83;1.67;;;;;;;;;;4954020;29;20530;-77
2021/05/09 11:41:54;;;;;;;2.13;1.50;;;;;;;;;;4953815;29;20154;-78
2021/05/09 11:44:22;;;;;;;2.08;1.40;;;;;;;;;;4954228;29;20063;-77
2021/05/09 11:46:48;;;;;;;4.30;1.65;;;;;;;;;;4953841;29;20059;-77
2021/05/09 11:49:17;;;;;;;1.23;1.13;;;;;;;;;;4952725;29;20074;-77
2021/05/09 11:52:04;;;;;;;2.55;1.52;;;;;;;;;;4953155;29;20139;-77
2021/05/09 11:54:31;;;;;;;7.18;1.40;;;;;;;;;;4942360;29;20043;-77
2021/05/09 11:57:00;;;;;;;3.17;1.15;;;;;;;;;;4952970;29;20131;-77
2021/05/09 11:59:29;;;;;;;8.40;1.45;;;;;;;;;;4953617;29;20098;-77
2021/05/09 12:01:57;;;;;;;2.63;1.38;;;;;;;;;;4953020;29;20058;-77
2021/05/09 12:04:29;;;;;;;2.63;1.30;;;;;;;;;;4953349;29;20075;-77
2021/05/09 12:06:57;;;;;;;3.00;1.50;;;;;;;;;;4951620;28;20547;-77
2021/05/09 12:09:24;;;;;;;5.53;1.23;;;;;;;;;;4952581;29;20492;-77
2021/05/09 12:11:51;;;;;;;3.72;1.70;;;;;;;;;;4953114;29;20070;-78
2021/05/09 12:14:17;;;;;;;6.07;1.98;;;;;;;;;;4952857;29;20492;-78
2021/05/09 12:16:45;;;;;;;5.57;1.70;;;;;;;;;;4952502;29;20058;-77
2021/05/09 12:19:12;;;;;;;3.65;1.00;;;;;;;;;;4952294;28;20062;-77
2021/05/09 12:21:39;;;;;;;2.33;1.20;;;;;;;;;;4951597;29;20050;-78
2021/05/09 12:24:07;;;;;;;5.15;1.52;;;;;;;;;;4952848;29;20094;-78
2021/05/09 12:26:34;;;;;;;4.40;1.65;;;;;;;;;;4952723;28;20074;-77
2021/05/09 12:29:17;;;;;;;2.75;1.13;;;;;;;;;;4952252;28;20471;-78
2021/05/09 12:31:44;;;;;;;5.93;1.17;;;;;;;;;;4950627;29;20078;-77
2021/05/09 12:34:10;;;;;;;1.83;1.10;;;;;;;;;;4950923;29;20066;-78
2021/05/09 12:36:40;;;;;;;2.45;1.10;;;;;;;;;;4952420;29;20086;-77
2021/05/09 12:39:20;;;;;;;4.75;1.15;;;;;;;;;;4953076;29;20079;-77
2021/05/09 12:41:53;;;;;;;1.70;0.95;;;;;;;;;;4951469;29;20143;-77
2021/05/09 12:44:21;;;;;;;3.85;1.15;;;;;;;;;;4951914;29;20484;-77
2021/05/09 12:46:48;;;;;;;2.40;1.27;;;;;;;;;;4951719;29;20504;-77
2021/05/09 12:49:16;;;;;;;5.90;1.77;;;;;;;;;;4952160;28;20054;-76
2021/05/09 12:51:48;;;;;;;6.30;1.48;;;;;;;;;;4952327;29;20106;-77
2021/05/09 12:54:34;;;;;;;5.68;1.40;;;;;;;;;;4952451;29;20091;-77
2021/05/09 12:57:00;;;;;;;;;;;;;;;;;;4952170;29;20510;-77
2021/05/09 12:59:27;;;;;;;2.15;1.08;;;;;;;;;;4950512;29;20000;-77
2021/05/09 13:02:01;;;;;;;1.85;1.20;;;;;;;;;;4951055;29;20110;-77
2021/05/09 13:04:32;;;;;;;1.77;0.93;;;;;;;;;;4951315;29;20113;-77
2021/05/09 13:07:00;;;;;;;4.25;1.30;;;;;;;;;;4951465;29;20055;-77
2021/05/09 13:09:27;;;;;;;2.58;0.90;;;;;;;;;;4954216;29;20051;-77
2021/05/09 13:11:54;;;;;;;3.03;1.20;;;;;;;;;;4955325;28;20093;-80
2021/05/09 13:14:21;;;;;;;1.55;1.10;;;;;;;;;;4955845;28;20099;-78
2021/05/09 13:16:48;;;;;;;4.78;1.20;;;;;;;;;;4954160;28;20047;-78
2021/05/09 13:19:16;;;;;;;2.40;1.23;;;;;;;;;;4951533;28;20055;-78
2021/05/09 13:21:42;;;;;;;2.53;1.45;;;;;;;;;;4954049;29;20134;-84
2021/05/09 13:24:16;;;;;;;2.97;1.38;;;;;;;;;;4953547;29;20500;-81
2021/05/09 13:26:43;;;;;;;3.67;1.50;;;;;;;;;;4955342;29;20444;-81
2021/05/09 13:29:10;;;;;;;2.20;1.15;;;;;;;;;;4955300;29;20051;-81
2021/05/09 13:31:37;;;;;;;5.72;1.15;;;;;;;;;;4955283;29;20039;-80
2021/05/09 13:34:04;;;;;;;2.80;1.17;;;;;;;;;;4969834;28;20047;-84
2021/05/09 13:36:35;;;;;;;97.47;11.73;;;;;;;;;;4954853;28;20126;-84
2021/05/09 13:39:03;;;;;;;14.05;1.95;;;;;;;;;;4954548;29;20059;-84
2021/05/09 13:41:29;;;;;;;21.23;3.30;;;;;;;;;;4971618;28;20063;-83
2021/05/09 13:43:59;;;;;;;2.25;1.10;;;;;;;;;;4955424;28;20055;-84
2021/05/09 13:46:26;;;;;;;8.77;1.40;;;;;;;;;;4964155;28;20079;-81
2021/05/09 13:48:52;;;;;;;3.25;1.20;;;;;;;;;;4954194;29;20246;-83
2021/05/09 13:51:19;;;;;;;2.78;1.20;;;;;;;;;;4953141;29;20079;-83
2021/05/09 13:53:46;;;;;;;2.08;1.08;;;;;;;;;;4953734;29;20076;-83
2021/05/09 13:56:12;;;;;;;5.10;1.40;;;;;;;;;;4954896;29;20047;-85
2021/05/09 13:58:40;;;;;;;2.03;1.17;;;;;;;;;;4954189;29;20319;-84
2021/05/09 14:01:07;;;;;;;4.05;1.38;;;;;;;;;;4953031;29;20448;-82
2021/05/09 14:03:34;;;;;;;3.10;1.20;;;;;;;;;;4954457;29;20047;-87
2021/05/09 14:06:01;;;;;;;5.82;1.23;;;;;;;;;;4953702;28;20468;-86
2021/05/09 14:08:28;;;;;;;3.13;1.35;;;;;;;;;;4955798;28;20051;-87
2021/05/09 14:10:57;;;;;;;2.15;1.30;;;;;;;;;;4954828;28;20055;-86
2021/05/09 14:13:23;;;;;;;1.48;1.10;;;;;;;;;;4953008;29;20054;-85
2021/05/09 14:15:51;;;;;;;2.55;1.23;;;;;;;;;;4953192;29;20137;-84
2021/05/09 14:18:18;;;;;;;2.65;1.20;;;;;;;;;;4953172;29;20055;-84
2021/05/09 14:20:45;;;;;;;2.13;1.33;;;;;;;;;;4954595;28;20794;-85
2021/05/09 14:23:12;;;;;;;2.05;1.33;;;;;;;;;;4954218;28;20059;-83
2021/05/09 14:25:39;;;;;;;2.45;1.30;;;;;;;;;;4954041;28;20153;-81
2021/05/09 14:28:05;;;;;;;3.72;1.30;;;;;;;;;;4954237;28;20054;-81
2021/05/09 14:30:32;;;;;;;2.50;1.00;;;;;;;;;;4953521;28;20055;-83
2021/05/09 14:32:59;;;;;;;2.30;1.25;;;;;;;;;;4954303;28;20090;-84
2021/05/09 14:35:26;;;;;;;2.53;0.90;;;;;;;;;;4953936;29;20048;-83
2021/05/09 14:37:57;;;;;;;3.08;1.20;;;;;;;;;;4953082;28;20082;-82
2021/05/09 14:40:24;;;;;;;4.80;1.52;;;;;;;;;;4968438;28;20055;-80
2021/05/09 14:42:51;;;;;;;3.22;1.50;;;;;;;;;;4954250;29;20671;-84
2021/05/09 14:45:18;;;;;;;2.30;1.35;;;;;;;;;;4952792;29;20051;-84
2021/05/09 14:47:45;;;;;;;1.02;0.90;;;;;;;;;;4951897;29;20739;-79